sensor_id;sensor_type;location;lat;lon;timestamp;P1;durP1;ratioP1;P2;durP2;ratioP2
20525;SDS011;10421;49.142;9.232;2023-02-28T00:01:29;3.33;;;3.03;;
20525;SDS011;10421;49.142;9.232;2023-02-28T00:03:56;2.60;;;2.40;;
20525;SDS011;10421;49.142;9.232;2023-02-28T00:06:22;6.17;;;3.87;;
20525;SDS011;10421;49.142;9.232;2023-02-28T00:08:50;4.03;;;3.30;;
20525;SDS011;10421;49.142;9.232;2023-02-28T00:11:18;4.00;;;3.10;;
20525;SDS011;10421;49.142;9.232;2023-02-28T00:13:45;4.57;;;3.40;;
20525;SDS011;10421;49.142;9.232;2023-02-28T00:16:14;4.40;;;3.43;;
20525;SDS011;10421;49.142;9.232;2023-02-28T00:18:42;5.27;;;3.67;;
20525;SDS011;10421;49.142;9.232;2023-02-28T00:21:09;3.70;;;3.03;;
20525;SDS011;10421;49.142;9.232;2023-02-28T00:23:36;5.13;;;3.20;;
20525;SDS011;10421;49.142;9.232;2023-02-28T00:26:03;7.07;;;4.20;;
20525;SDS011;10421;49.142;9.232;2023-02-28T00:28:32;4.70;;;3.80;;
20525;SDS011;10421;49.142;9.232;2023-02-28T00:30:58;4.40;;;3.70;;
20525;SDS011;10421;49.142;9.232;2023-02-28T00:33:26;4.87;;;3.20;;
20525;SDS011;10421;49.142;9.232;2023-02-28T00:36:00;4.60;;;3.50;;
20525;SDS011;10421;49.142;9.232;2023-02-28T00:38:28;4.57;;;3.00;;
20525;SDS011;10421;49.142;9.232;2023-02-28T00:40:55;6.17;;;3.07;;
20525;SDS011;10421;49.142;9.232;2023-02-28T00:43:21;4.10;;;3.03;;
20525;SDS011;10421;49.142;9.232;2023-02-28T00:45:50;5.77;;;4.00;;
20525;SDS011;10421;49.142;9.232;2023-02-28T00:48:16;4.13;;;3.60;;
20525;SDS011;10421;49.142;9.232;2023-02-28T00:50:43;5.63;;;3.50;;
20525;SDS011;10421;49.142;9.232;2023-02-28T00:53:10;4.30;;;3.27;;
20525;SDS011;10421;49.142;9.232;2023-02-28T00:55:36;4.30;;;3.20;;
20525;SDS011;10421;49.142;9.232;2023-02-28T00:58:03;4.80;;;3.77;;
20525;SDS011;10421;49.142;9.232;2023-02-28T01:00:30;5.40;;;3.37;;
20525;SDS011;10421;49.142;9.232;2023-02-28T01:02:58;4.17;;;3.67;;
20525;SDS011;10421;49.142;9.232;2023-02-28T01:05:25;5.47;;;3.57;;
20525;SDS011;10421;49.142;9.232;2023-02-28T01:07:52;4.90;;;3.70;;
20525;SDS011;10421;49.142;9.232;2023-02-28T01:10:18;5.40;;;3.40;;
20525;SDS011;10421;49.142;9.232;2023-02-28T01:12:45;4.60;;;2.97;;
20525;SDS011;10421;49.142;9.232;2023-02-28T01:15:12;7.47;;;4.40;;
20525;SDS011;10421;49.142;9.232;2023-02-28T01:17:39;5.43;;;3.37;;
20525;SDS011;10421;49.142;9.232;2023-02-28T01:20:08;5.03;;;3.90;;
20525;SDS011;10421;49.142;9.232;2023-02-28T01:22:35;4.47;;;3.10;;
20525;SDS011;10421;49.142;9.232;2023-02-28T01:25:02;4.97;;;3.97;;
20525;SDS011;10421;49.142;9.232;2023-02-28T01:27:30;4.47;;;3.10;;
20525;SDS011;10421;49.142;9.232;2023-02-28T01:29:56;4.00;;;3.20;;
20525;SDS011;10421;49.142;9.232;2023-02-28T01:32:23;6.93;;;3.90;;
20525;SDS011;10421;49.142;9.232;2023-02-28T01:34:50;7.10;;;3.87;;
20525;SDS011;10421;49.142;9.232;2023-02-28T01:37:18;5.70;;;3.60;;
20525;SDS011;10421;49.142;9.232;2023-02-28T01:39:45;4.17;;;3.63;;
20525;SDS011;10421;49.142;9.232;2023-02-28T01:42:11;4.33;;;3.20;;
20525;SDS011;10421;49.142;9.232;2023-02-28T01:44:58;3.87;;;3.20;;
20525;SDS011;10421;49.142;9.232;2023-02-28T01:47:28;4.53;;;3.40;;
20525;SDS011;10421;49.142;9.232;2023-02-28T01:49:58;5.13;;;3.30;;
20525;SDS011;10421;49.142;9.232;2023-02-28T01:52:28;3.77;;;3.40;;
20525;SDS011;10421;49.142;9.232;2023-02-28T01:54:55;5.07;;;3.43;;
20525;SDS011;10421;49.142;9.232;2023-02-28T01:57:25;4.77;;;3.13;;
20525;SDS011;10421;49.142;9.232;2023-02-28T02:00:03;4.20;;;3.80;;
20525;SDS011;10421;49.142;9.232;2023-02-28T02:02:34;9.73;;;5.70;;
20525;SDS011;10421;49.142;9.232;2023-02-28T02:05:03;31.87;;;15.47;;
20525;SDS011;10421;49.142;9.232;2023-02-28T02:07:33;10.30;;;5.70;;
20525;SDS011;10421;49.142;9.232;2023-02-28T02:10:03;5.63;;;4.00;;
20525;SDS011;10421;49.142;9.232;2023-02-28T02:12:37;4.90;;;4.40;;
20525;SDS011;10421;49.142;9.232;2023-02-28T02:15:16;4.90;;;3.50;;
20525;SDS011;10421;49.142;9.232;2023-02-28T02:17:50;5.57;;;3.50;;
20525;SDS011;10421;49.142;9.232;2023-02-28T02:20:32;3.80;;;3.30;;
20525;SDS011;10421;49.142;9.232;2023-02-28T02:26:18;4.53;;;3.20;;
20525;SDS011;10421;49.142;9.232;2023-02-28T02:29:19;5.97;;;3.90;;
20525;SDS011;10421;49.142;9.232;2023-02-28T02:35:09;6.20;;;3.90;;
20525;SDS011;10421;49.142;9.232;2023-02-28T02:37:40;6.10;;;3.53;;
20525;SDS011;10421;49.142;9.232;2023-02-28T02:40:14;4.83;;;3.67;;
20525;SDS011;10421;49.142;9.232;2023-02-28T02:42:46;4.13;;;3.27;;
20525;SDS011;10421;49.142;9.232;2023-02-28T02:45:17;5.50;;;3.37;;
20525;SDS011;10421;49.142;9.232;2023-02-28T02:47:48;9.93;;;4.67;;
20525;SDS011;10421;49.142;9.232;2023-02-28T02:50:19;6.67;;;3.53;;
20525;SDS011;10421;49.142;9.232;2023-02-28T02:52:51;6.70;;;3.77;;
20525;SDS011;10421;49.142;9.232;2023-02-28T02:55:21;5.53;;;4.00;;
20525;SDS011;10421;49.142;9.232;2023-02-28T02:57:49;9.17;;;3.60;;
20525;SDS011;10421;49.142;9.232;2023-02-28T03:00:21;10.10;;;3.47;;
20525;SDS011;10421;49.142;9.232;2023-02-28T03:02:52;4.97;;;3.30;;
20525;SDS011;10421;49.142;9.232;2023-02-28T03:05:23;5.60;;;3.67;;
20525;SDS011;10421;49.142;9.232;2023-02-28T03:07:52;4.20;;;3.63;;
20525;SDS011;10421;49.142;9.232;2023-02-28T03:10:27;5.50;;;3.47;;
20525;SDS011;10421;49.142;9.232;2023-02-28T03:12:59;6.50;;;3.67;;
20525;SDS011;10421;49.142;9.232;2023-02-28T03:15:35;7.03;;;4.27;;
20525;SDS011;10421;49.142;9.232;2023-02-28T03:18:12;5.40;;;3.40;;
20525;SDS011;10421;49.142;9.232;2023-02-28T03:20:50;4.83;;;2.97;;
20525;SDS011;10421;49.142;9.232;2023-02-28T03:23:23;8.60;;;3.80;;
20525;SDS011;10421;49.142;9.232;2023-02-28T03:25:59;6.53;;;3.70;;
20525;SDS011;10421;49.142;9.232;2023-02-28T03:28:31;4.57;;;3.57;;
20525;SDS011;10421;49.142;9.232;2023-02-28T03:31:03;4.27;;;3.40;;
20525;SDS011;10421;49.142;9.232;2023-02-28T03:33:37;6.13;;;3.40;;
20525;SDS011;10421;49.142;9.232;2023-02-28T03:36:10;5.50;;;4.13;;
20525;SDS011;10421;49.142;9.232;2023-02-28T03:38:40;6.23;;;3.67;;
20525;SDS011;10421;49.142;9.232;2023-02-28T03:41:11;5.70;;;4.13;;
20525;SDS011;10421;49.142;9.232;2023-02-28T03:43:41;6.33;;;3.70;;
20525;SDS011;10421;49.142;9.232;2023-02-28T03:46:12;4.30;;;3.87;;
20525;SDS011;10421;49.142;9.232;2023-02-28T03:48:43;5.10;;;3.47;;
20525;SDS011;10421;49.142;9.232;2023-02-28T03:51:16;6.63;;;3.70;;
20525;SDS011;10421;49.142;9.232;2023-02-28T03:53:47;5.90;;;4.17;;
20525;SDS011;10421;49.142;9.232;2023-02-28T03:56:19;6.87;;;4.47;;
20525;SDS011;10421;49.142;9.232;2023-02-28T03:58:49;4.90;;;4.10;;
20525;SDS011;10421;49.142;9.232;2023-02-28T04:01:20;5.17;;;3.70;;
20525;SDS011;10421;49.142;9.232;2023-02-28T04:03:51;7.67;;;4.50;;
20525;SDS011;10421;49.142;9.232;2023-02-28T04:06:20;4.57;;;3.80;;
20525;SDS011;10421;49.142;9.232;2023-02-28T04:08:48;6.00;;;3.47;;
20525;SDS011;10421;49.142;9.232;2023-02-28T04:11:18;6.40;;;4.10;;
20525;SDS011;10421;49.142;9.232;2023-02-28T04:13:47;5.50;;;4.03;;
20525;SDS011;10421;49.142;9.232;2023-02-28T04:16:14;8.47;;;3.67;;
20525;SDS011;10421;49.142;9.232;2023-02-28T04:18:41;4.30;;;3.80;;
20525;SDS011;10421;49.142;9.232;2023-02-28T04:21:09;4.07;;;3.40;;
20525;SDS011;10421;49.142;9.232;2023-02-28T04:23:38;6.03;;;4.33;;
20525;SDS011;10421;49.142;9.232;2023-02-28T04:26:05;5.70;;;4.17;;
20525;SDS011;10421;49.142;9.232;2023-02-28T04:28:32;4.73;;;3.77;;
20525;SDS011;10421;49.142;9.232;2023-02-28T04:31:00;7.97;;;4.17;;
20525;SDS011;10421;49.142;9.232;2023-02-28T04:33:30;6.60;;;4.60;;
20525;SDS011;10421;49.142;9.232;2023-02-28T04:35:58;8.00;;;4.70;;
20525;SDS011;10421;49.142;9.232;2023-02-28T04:38:25;7.90;;;4.90;;
20525;SDS011;10421;49.142;9.232;2023-02-28T04:40:54;6.73;;;4.20;;
20525;SDS011;10421;49.142;9.232;2023-02-28T04:43:23;8.90;;;5.10;;
20525;SDS011;10421;49.142;9.232;2023-02-28T04:45:50;7.50;;;4.13;;
20525;SDS011;10421;49.142;9.232;2023-02-28T04:48:16;5.97;;;3.80;;
20525;SDS011;10421;49.142;9.232;2023-02-28T04:50:43;5.70;;;4.33;;
20525;SDS011;10421;49.142;9.232;2023-02-28T04:53:10;6.87;;;4.17;;
20525;SDS011;10421;49.142;9.232;2023-02-28T04:55:36;6.40;;;4.50;;
20525;SDS011;10421;49.142;9.232;2023-02-28T04:58:07;6.13;;;4.10;;
20525;SDS011;10421;49.142;9.232;2023-02-28T05:00:33;6.50;;;4.13;;
20525;SDS011;10421;49.142;9.232;2023-02-28T05:03:00;6.17;;;4.00;;
20525;SDS011;10421;49.142;9.232;2023-02-28T05:05:27;6.70;;;4.30;;
20525;SDS011;10421;49.142;9.232;2023-02-28T05:07:54;9.30;;;4.37;;
20525;SDS011;10421;49.142;9.232;2023-02-28T05:10:21;6.93;;;4.57;;
20525;SDS011;10421;49.142;9.232;2023-02-28T05:12:48;6.10;;;4.17;;
20525;SDS011;10421;49.142;9.232;2023-02-28T05:15:16;5.40;;;4.40;;
20525;SDS011;10421;49.142;9.232;2023-02-28T05:17:43;6.80;;;4.30;;
20525;SDS011;10421;49.142;9.232;2023-02-28T05:20:10;10.47;;;4.07;;
20525;SDS011;10421;49.142;9.232;2023-02-28T05:22:38;8.90;;;5.20;;
20525;SDS011;10421;49.142;9.232;2023-02-28T05:25:06;11.13;;;5.03;;
20525;SDS011;10421;49.142;9.232;2023-02-28T05:27:34;10.20;;;4.33;;
20525;SDS011;10421;49.142;9.232;2023-02-28T05:30:01;5.10;;;3.70;;
20525;SDS011;10421;49.142;9.232;2023-02-28T05:32:30;8.93;;;5.30;;
20525;SDS011;10421;49.142;9.232;2023-02-28T05:34:57;6.43;;;4.27;;
20525;SDS011;10421;49.142;9.232;2023-02-28T05:37:24;8.40;;;4.70;;
20525;SDS011;10421;49.142;9.232;2023-02-28T05:39:50;9.43;;;4.90;;
20525;SDS011;10421;49.142;9.232;2023-02-28T05:42:17;7.37;;;4.63;;
20525;SDS011;10421;49.142;9.232;2023-02-28T05:44:44;7.73;;;4.53;;
20525;SDS011;10421;49.142;9.232;2023-02-28T05:47:11;7.63;;;4.97;;
20525;SDS011;10421;49.142;9.232;2023-02-28T05:49:41;7.93;;;4.30;;
20525;SDS011;10421;49.142;9.232;2023-02-28T05:52:08;7.20;;;5.10;;
20525;SDS011;10421;49.142;9.232;2023-02-28T05:54:35;6.60;;;4.63;;
20525;SDS011;10421;49.142;9.232;2023-02-28T05:57:02;8.80;;;4.93;;
20525;SDS011;10421;49.142;9.232;2023-02-28T05:59:29;8.57;;;4.90;;
20525;SDS011;10421;49.142;9.232;2023-02-28T06:01:55;8.20;;;4.70;;
20525;SDS011;10421;49.142;9.232;2023-02-28T06:04:22;7.10;;;4.70;;
20525;SDS011;10421;49.142;9.232;2023-02-28T06:06:50;8.70;;;5.43;;
20525;SDS011;10421;49.142;9.232;2023-02-28T06:09:18;7.43;;;5.23;;
20525;SDS011;10421;49.142;9.232;2023-02-28T06:11:45;8.43;;;5.33;;
20525;SDS011;10421;49.142;9.232;2023-02-28T06:14:14;7.80;;;4.87;;
20525;SDS011;10421;49.142;9.232;2023-02-28T06:16:42;6.93;;;4.60;;
20525;SDS011;10421;49.142;9.232;2023-02-28T06:19:09;6.20;;;4.30;;
20525;SDS011;10421;49.142;9.232;2023-02-28T06:21:36;8.57;;;4.80;;
20525;SDS011;10421;49.142;9.232;2023-02-28T06:24:05;7.60;;;5.00;;
20525;SDS011;10421;49.142;9.232;2023-02-28T06:26:32;8.80;;;5.00;;
20525;SDS011;10421;49.142;9.232;2023-02-28T06:28:59;11.03;;;5.30;;
20525;SDS011;10421;49.142;9.232;2023-02-28T06:31:26;6.80;;;4.83;;
20525;SDS011;10421;49.142;9.232;2023-02-28T06:33:53;9.50;;;5.20;;
20525;SDS011;10421;49.142;9.232;2023-02-28T06:36:20;9.00;;;5.20;;
20525;SDS011;10421;49.142;9.232;2023-02-28T06:38:47;8.33;;;4.83;;
20525;SDS011;10421;49.142;9.232;2023-02-28T06:41:20;9.27;;;5.17;;
20525;SDS011;10421;49.142;9.232;2023-02-28T06:43:48;7.90;;;5.20;;
20525;SDS011;10421;49.142;9.232;2023-02-28T06:46:14;10.60;;;5.20;;
20525;SDS011;10421;49.142;9.232;2023-02-28T06:48:42;6.70;;;5.37;;
20525;SDS011;10421;49.142;9.232;2023-02-28T06:51:10;7.77;;;4.90;;
20525;SDS011;10421;49.142;9.232;2023-02-28T06:53:39;10.20;;;5.20;;
20525;SDS011;10421;49.142;9.232;2023-02-28T06:56:06;8.87;;;5.10;;
20525;SDS011;10421;49.142;9.232;2023-02-28T06:58:36;7.23;;;4.87;;
20525;SDS011;10421;49.142;9.232;2023-02-28T07:01:04;9.70;;;4.90;;
20525;SDS011;10421;49.142;9.232;2023-02-28T07:03:31;6.97;;;5.63;;
20525;SDS011;10421;49.142;9.232;2023-02-28T07:05:58;8.77;;;5.70;;
20525;SDS011;10421;49.142;9.232;2023-02-28T07:08:26;8.20;;;4.83;;
20525;SDS011;10421;49.142;9.232;2023-02-28T07:10:53;10.37;;;5.00;;
20525;SDS011;10421;49.142;9.232;2023-02-28T07:13:20;14.47;;;7.60;;
20525;SDS011;10421;49.142;9.232;2023-02-28T07:15:53;16.47;;;7.57;;
20525;SDS011;10421;49.142;9.232;2023-02-28T07:18:21;13.80;;;7.20;;
20525;SDS011;10421;49.142;9.232;2023-02-28T07:20:47;11.20;;;6.70;;
20525;SDS011;10421;49.142;9.232;2023-02-28T07:23:14;11.20;;;5.97;;
20525;SDS011;10421;49.142;9.232;2023-02-28T07:25:41;13.80;;;7.00;;
20525;SDS011;10421;49.142;9.232;2023-02-28T07:28:08;9.60;;;6.17;;
20525;SDS011;10421;49.142;9.232;2023-02-28T07:30:35;12.20;;;7.03;;
20525;SDS011;10421;49.142;9.232;2023-02-28T07:33:03;10.80;;;6.77;;
20525;SDS011;10421;49.142;9.232;2023-02-28T07:35:30;11.20;;;6.40;;
20525;SDS011;10421;49.142;9.232;2023-02-28T07:37:57;11.07;;;5.90;;
20525;SDS011;10421;49.142;9.232;2023-02-28T07:40:24;11.80;;;6.00;;
20525;SDS011;10421;49.142;9.232;2023-02-28T07:42:52;9.30;;;5.40;;
20525;SDS011;10421;49.142;9.232;2023-02-28T07:45:19;8.40;;;6.30;;
20525;SDS011;10421;49.142;9.232;2023-02-28T07:47:47;9.40;;;5.83;;
20525;SDS011;10421;49.142;9.232;2023-02-28T07:50:15;13.53;;;6.23;;
20525;SDS011;10421;49.142;9.232;2023-02-28T07:52:42;7.77;;;5.10;;
20525;SDS011;10421;49.142;9.232;2023-02-28T07:55:09;13.87;;;6.50;;
20525;SDS011;10421;49.142;9.232;2023-02-28T07:57:36;11.57;;;6.20;;
20525;SDS011;10421;49.142;9.232;2023-02-28T08:00:03;10.83;;;6.30;;
20525;SDS011;10421;49.142;9.232;2023-02-28T08:02:32;9.07;;;5.73;;
20525;SDS011;10421;49.142;9.232;2023-02-28T08:04:59;10.67;;;6.47;;
20525;SDS011;10421;49.142;9.232;2023-02-28T08:07:28;9.87;;;6.30;;
20525;SDS011;10421;49.142;9.232;2023-02-28T08:09:54;9.23;;;6.20;;
20525;SDS011;10421;49.142;9.232;2023-02-28T08:12:21;9.70;;;5.47;;
20525;SDS011;10421;49.142;9.232;2023-02-28T08:14:48;9.17;;;5.93;;
20525;SDS011;10421;49.142;9.232;2023-02-28T08:17:15;10.57;;;6.07;;
20525;SDS011;10421;49.142;9.232;2023-02-28T08:19:41;12.07;;;6.37;;
20525;SDS011;10421;49.142;9.232;2023-02-28T08:22:10;9.90;;;6.13;;
20525;SDS011;10421;49.142;9.232;2023-02-28T08:24:38;9.70;;;5.63;;
20525;SDS011;10421;49.142;9.232;2023-02-28T08:27:07;12.80;;;5.90;;
20525;SDS011;10421;49.142;9.232;2023-02-28T08:29:36;12.87;;;6.43;;
20525;SDS011;10421;49.142;9.232;2023-02-28T08:32:03;14.67;;;6.23;;
20525;SDS011;10421;49.142;9.232;2023-02-28T08:34:30;12.17;;;6.00;;
20525;SDS011;10421;49.142;9.232;2023-02-28T08:36:57;12.50;;;6.80;;
20525;SDS011;10421;49.142;9.232;2023-02-28T08:39:24;9.23;;;5.97;;
20525;SDS011;10421;49.142;9.232;2023-02-28T08:41:52;9.53;;;6.40;;
20525;SDS011;10421;49.142;9.232;2023-02-28T08:44:18;9.80;;;5.97;;
20525;SDS011;10421;49.142;9.232;2023-02-28T08:46:45;10.10;;;6.43;;
20525;SDS011;10421;49.142;9.232;2023-02-28T08:49:12;11.60;;;6.50;;
20525;SDS011;10421;49.142;9.232;2023-02-28T08:51:39;9.80;;;6.10;;
20525;SDS011;10421;49.142;9.232;2023-02-28T08:54:06;10.90;;;6.13;;
20525;SDS011;10421;49.142;9.232;2023-02-28T08:56:34;11.43;;;6.50;;
20525;SDS011;10421;49.142;9.232;2023-02-28T08:59:02;10.87;;;6.47;;
20525;SDS011;10421;49.142;9.232;2023-02-28T09:01:29;14.70;;;6.73;;
20525;SDS011;10421;49.142;9.232;2023-02-28T09:03:57;10.67;;;6.43;;
20525;SDS011;10421;49.142;9.232;2023-02-28T09:06:27;9.97;;;6.33;;
20525;SDS011;10421;49.142;9.232;2023-02-28T09:08:58;11.70;;;7.23;;
20525;SDS011;10421;49.142;9.232;2023-02-28T09:11:29;9.40;;;6.00;;
20525;SDS011;10421;49.142;9.232;2023-02-28T09:13:56;10.50;;;6.50;;
20525;SDS011;10421;49.142;9.232;2023-02-28T09:16:25;12.40;;;6.80;;
20525;SDS011;10421;49.142;9.232;2023-02-28T09:18:52;13.33;;;7.00;;
20525;SDS011;10421;49.142;9.232;2023-02-28T09:21:19;9.90;;;6.30;;
20525;SDS011;10421;49.142;9.232;2023-02-28T09:23:46;10.73;;;6.77;;
20525;SDS011;10421;49.142;9.232;2023-02-28T09:26:15;9.90;;;6.23;;
20525;SDS011;10421;49.142;9.232;2023-02-28T09:28:44;10.27;;;6.50;;
20525;SDS011;10421;49.142;9.232;2023-02-28T09:31:11;9.93;;;6.60;;
20525;SDS011;10421;49.142;9.232;2023-02-28T09:33:40;9.90;;;6.30;;
20525;SDS011;10421;49.142;9.232;2023-02-28T09:36:08;15.43;;;7.20;;
20525;SDS011;10421;49.142;9.232;2023-02-28T09:38:34;9.00;;;6.70;;
20525;SDS011;10421;49.142;9.232;2023-02-28T09:41:03;13.90;;;6.87;;
20525;SDS011;10421;49.142;9.232;2023-02-28T09:43:38;13.00;;;6.37;;
20525;SDS011;10421;49.142;9.232;2023-02-28T09:46:11;16.10;;;7.50;;
20525;SDS011;10421;49.142;9.232;2023-02-28T09:48:53;10.17;;;6.87;;
20525;SDS011;10421;49.142;9.232;2023-02-28T09:51:31;13.30;;;7.20;;
20525;SDS011;10421;49.142;9.232;2023-02-28T09:54:05;13.43;;;6.53;;
20525;SDS011;10421;49.142;9.232;2023-02-28T09:56:33;11.40;;;6.80;;
20525;SDS011;10421;49.142;9.232;2023-02-28T09:59:09;10.83;;;7.27;;
20525;SDS011;10421;49.142;9.232;2023-02-28T10:01:46;11.10;;;7.10;;
20525;SDS011;10421;49.142;9.232;2023-02-28T10:04:26;11.60;;;6.37;;
20525;SDS011;10421;49.142;9.232;2023-02-28T10:07:04;10.70;;;6.40;;
20525;SDS011;10421;49.142;9.232;2023-02-28T10:09:45;12.33;;;6.30;;
20525;SDS011;10421;49.142;9.232;2023-02-28T10:12:18;9.97;;;6.40;;
20525;SDS011;10421;49.142;9.232;2023-02-28T10:14:47;9.33;;;6.23;;
20525;SDS011;10421;49.142;9.232;2023-02-28T10:17:19;12.33;;;6.73;;
20525;SDS011;10421;49.142;9.232;2023-02-28T10:19:55;10.70;;;6.97;;
20525;SDS011;10421;49.142;9.232;2023-02-28T10:22:34;11.80;;;7.50;;
20525;SDS011;10421;49.142;9.232;2023-02-28T10:25:15;11.83;;;7.67;;
20525;SDS011;10421;49.142;9.232;2023-02-28T10:27:44;13.33;;;7.27;;
20525;SDS011;10421;49.142;9.232;2023-02-28T10:30:11;9.50;;;6.40;;
20525;SDS011;10421;49.142;9.232;2023-02-28T10:32:39;11.00;;;6.67;;
20525;SDS011;10421;49.142;9.232;2023-02-28T10:35:16;10.90;;;7.10;;
20525;SDS011;10421;49.142;9.232;2023-02-28T10:37:47;11.87;;;6.90;;
20525;SDS011;10421;49.142;9.232;2023-02-28T10:40:25;11.10;;;7.50;;
20525;SDS011;10421;49.142;9.232;2023-02-28T10:42:55;11.10;;;6.63;;
20525;SDS011;10421;49.142;9.232;2023-02-28T10:45:24;11.03;;;7.33;;
20525;SDS011;10421;49.142;9.232;2023-02-28T10:47:53;15.60;;;7.67;;
20525;SDS011;10421;49.142;9.232;2023-02-28T10:50:28;10.77;;;7.40;;
20525;SDS011;10421;49.142;9.232;2023-02-28T10:53:05;15.87;;;7.47;;
20525;SDS011;10421;49.142;9.232;2023-02-28T10:55:42;12.47;;;7.77;;
20525;SDS011;10421;49.142;9.232;2023-02-28T10:58:22;12.97;;;7.80;;
20525;SDS011;10421;49.142;9.232;2023-02-28T11:00:50;14.53;;;8.13;;
20525;SDS011;10421;49.142;9.232;2023-02-28T11:03:25;10.93;;;7.10;;
20525;SDS011;10421;49.142;9.232;2023-02-28T11:05:57;11.07;;;7.00;;
20525;SDS011;10421;49.142;9.232;2023-02-28T11:08:29;8.73;;;6.70;;
20525;SDS011;10421;49.142;9.232;2023-02-28T11:10:57;13.90;;;7.60;;
20525;SDS011;10421;49.142;9.232;2023-02-28T11:13:29;11.03;;;7.43;;
20525;SDS011;10421;49.142;9.232;2023-02-28T11:16:00;10.73;;;7.03;;
20525;SDS011;10421;49.142;9.232;2023-02-28T11:18:32;12.83;;;8.13;;
20525;SDS011;10421;49.142;9.232;2023-02-28T11:21:06;10.37;;;7.37;;
20525;SDS011;10421;49.142;9.232;2023-02-28T11:23:35;11.03;;;7.83;;
20525;SDS011;10421;49.142;9.232;2023-02-28T11:26:06;12.60;;;7.37;;
20525;SDS011;10421;49.142;9.232;2023-02-28T11:28:36;13.40;;;7.77;;
20525;SDS011;10421;49.142;9.232;2023-02-28T11:31:15;13.00;;;7.90;;
20525;SDS011;10421;49.142;9.232;2023-02-28T11:33:45;13.73;;;7.90;;
20525;SDS011;10421;49.142;9.232;2023-02-28T11:36:18;10.93;;;7.30;;
20525;SDS011;10421;49.142;9.232;2023-02-28T11:38:50;10.40;;;7.73;;
20525;SDS011;10421;49.142;9.232;2023-02-28T11:41:28;11.17;;;7.67;;
20525;SDS011;10421;49.142;9.232;2023-02-28T11:44:10;12.57;;;7.80;;
20525;SDS011;10421;49.142;9.232;2023-02-28T11:46:48;11.83;;;7.90;;
20525;SDS011;10421;49.142;9.232;2023-02-28T11:49:25;12.50;;;7.27;;
20525;SDS011;10421;49.142;9.232;2023-02-28T11:52:02;11.87;;;7.43;;
20525;SDS011;10421;49.142;9.232;2023-02-28T11:57:36;10.53;;;7.40;;
20525;SDS011;10421;49.142;9.232;2023-02-28T12:00:24;13.37;;;7.63;;
20525;SDS011;10421;49.142;9.232;2023-02-28T12:03:16;11.80;;;7.67;;
20525;SDS011;10421;49.142;9.232;2023-02-28T12:05:53;13.17;;;8.17;;
20525;SDS011;10421;49.142;9.232;2023-02-28T12:08:35;15.50;;;8.90;;
20525;SDS011;10421;49.142;9.232;2023-02-28T12:11:15;13.10;;;8.17;;
20525;SDS011;10421;49.142;9.232;2023-02-28T12:13:55;13.30;;;8.87;;
20525;SDS011;10421;49.142;9.232;2023-02-28T12:16:46;13.30;;;8.10;;
20525;SDS011;10421;49.142;9.232;2023-02-28T12:19:24;11.63;;;8.30;;
20525;SDS011;10421;49.142;9.232;2023-02-28T12:22:14;13.93;;;7.90;;
20525;SDS011;10421;49.142;9.232;2023-02-28T12:25:01;11.60;;;7.80;;
20525;SDS011;10421;49.142;9.232;2023-02-28T12:27:51;12.23;;;8.43;;
20525;SDS011;10421;49.142;9.232;2023-02-28T12:30:21;13.83;;;9.10;;
20525;SDS011;10421;49.142;9.232;2023-02-28T12:32:52;14.10;;;8.50;;
20525;SDS011;10421;49.142;9.232;2023-02-28T12:35:24;12.90;;;7.90;;
20525;SDS011;10421;49.142;9.232;2023-02-28T12:37:55;10.90;;;7.80;;
20525;SDS011;10421;49.142;9.232;2023-02-28T12:40:29;16.30;;;9.63;;
20525;SDS011;10421;49.142;9.232;2023-02-28T12:43:07;13.30;;;8.77;;
20525;SDS011;10421;49.142;9.232;2023-02-28T12:45:40;12.77;;;7.97;;
20525;SDS011;10421;49.142;9.232;2023-02-28T12:48:12;13.27;;;8.77;;
20525;SDS011;10421;49.142;9.232;2023-02-28T12:50:42;13.33;;;9.47;;
20525;SDS011;10421;49.142;9.232;2023-02-28T12:53:10;14.20;;;9.80;;
20525;SDS011;10421;49.142;9.232;2023-02-28T12:55:45;16.50;;;9.20;;
20525;SDS011;10421;49.142;9.232;2023-02-28T12:58:19;13.93;;;9.03;;
20525;SDS011;10421;49.142;9.232;2023-02-28T13:04:15;16.80;;;9.13;;
20525;SDS011;10421;49.142;9.232;2023-02-28T13:07:13;15.10;;;9.60;;
20525;SDS011;10421;49.142;9.232;2023-02-28T13:10:03;13.27;;;9.27;;
20525;SDS011;10421;49.142;9.232;2023-02-28T13:12:34;16.50;;;9.47;;
20525;SDS011;10421;49.142;9.232;2023-02-28T13:15:04;13.47;;;9.40;;
20525;SDS011;10421;49.142;9.232;2023-02-28T13:17:38;13.27;;;9.53;;
20525;SDS011;10421;49.142;9.232;2023-02-28T13:20:14;13.27;;;8.83;;
20525;SDS011;10421;49.142;9.232;2023-02-28T13:22:44;15.33;;;9.10;;
20525;SDS011;10421;49.142;9.232;2023-02-28T13:34:35;15.37;;;8.97;;
20525;SDS011;10421;49.142;9.232;2023-02-28T13:43:02;14.90;;;8.57;;
20525;SDS011;10421;49.142;9.232;2023-02-28T13:45:30;16.20;;;9.77;;
20525;SDS011;10421;49.142;9.232;2023-02-28T13:48:03;14.53;;;9.23;;
20525;SDS011;10421;49.142;9.232;2023-02-28T13:50:34;15.50;;;9.70;;
20525;SDS011;10421;49.142;9.232;2023-02-28T13:56:23;14.30;;;8.57;;
20525;SDS011;10421;49.142;9.232;2023-02-28T13:58:59;12.60;;;8.90;;
20525;SDS011;10421;49.142;9.232;2023-02-28T14:01:35;11.93;;;8.63;;
20525;SDS011;10421;49.142;9.232;2023-02-28T14:07:13;15.00;;;9.07;;
20525;SDS011;10421;49.142;9.232;2023-02-28T14:09:45;16.00;;;9.67;;
20525;SDS011;10421;49.142;9.232;2023-02-28T14:15:26;13.23;;;8.87;;
20525;SDS011;10421;49.142;9.232;2023-02-28T14:18:10;13.90;;;8.27;;
20525;SDS011;10421;49.142;9.232;2023-02-28T14:20:45;13.17;;;8.80;;
20525;SDS011;10421;49.142;9.232;2023-02-28T14:23:16;14.00;;;9.13;;
20525;SDS011;10421;49.142;9.232;2023-02-28T14:25:54;16.30;;;9.80;;
20525;SDS011;10421;49.142;9.232;2023-02-28T14:28:36;15.80;;;9.10;;
20525;SDS011;10421;49.142;9.232;2023-02-28T14:31:13;15.60;;;10.13;;
20525;SDS011;10421;49.142;9.232;2023-02-28T14:33:57;16.43;;;9.20;;
20525;SDS011;10421;49.142;9.232;2023-02-28T14:36:40;14.47;;;9.87;;
20525;SDS011;10421;49.142;9.232;2023-02-28T14:39:12;15.03;;;9.13;;
20525;SDS011;10421;49.142;9.232;2023-02-28T14:41:41;15.30;;;9.03;;
20525;SDS011;10421;49.142;9.232;2023-02-28T14:44:13;14.30;;;8.30;;
20525;SDS011;10421;49.142;9.232;2023-02-28T14:46:43;13.20;;;8.40;;
20525;SDS011;10421;49.142;9.232;2023-02-28T14:49:13;11.97;;;7.73;;
20525;SDS011;10421;49.142;9.232;2023-02-28T14:51:44;12.73;;;8.30;;
20525;SDS011;10421;49.142;9.232;2023-02-28T14:54:15;14.67;;;8.40;;
20525;SDS011;10421;49.142;9.232;2023-02-28T14:56:49;13.57;;;9.30;;
20525;SDS011;10421;49.142;9.232;2023-02-28T14:59:27;15.47;;;9.60;;
20525;SDS011;10421;49.142;9.232;2023-02-28T15:02:15;14.33;;;8.43;;
20525;SDS011;10421;49.142;9.232;2023-02-28T15:04:52;15.03;;;8.87;;
20525;SDS011;10421;49.142;9.232;2023-02-28T15:07:23;16.60;;;9.40;;
20525;SDS011;10421;49.142;9.232;2023-02-28T15:10:13;15.10;;;8.43;;
20525;SDS011;10421;49.142;9.232;2023-02-28T15:12:46;16.50;;;8.80;;
20525;SDS011;10421;49.142;9.232;2023-02-28T15:15:21;14.27;;;8.80;;
20525;SDS011;10421;49.142;9.232;2023-02-28T15:17:52;15.13;;;8.57;;
20525;SDS011;10421;49.142;9.232;2023-02-28T15:20:22;13.60;;;9.00;;
20525;SDS011;10421;49.142;9.232;2023-02-28T15:22:50;16.67;;;8.77;;
20525;SDS011;10421;49.142;9.232;2023-02-28T15:25:22;14.30;;;8.70;;
20525;SDS011;10421;49.142;9.232;2023-02-28T15:27:51;13.07;;;8.10;;
20525;SDS011;10421;49.142;9.232;2023-02-28T15:30:21;17.33;;;10.37;;
20525;SDS011;10421;49.142;9.232;2023-02-28T15:33:05;11.87;;;7.63;;
20525;SDS011;10421;49.142;9.232;2023-02-28T15:35:43;12.07;;;8.53;;
20525;SDS011;10421;49.142;9.232;2023-02-28T15:38:15;13.10;;;8.57;;
20525;SDS011;10421;49.142;9.232;2023-02-28T15:40:49;18.80;;;9.73;;